sensor_id;sensor_type;location;lat;lon;timestamp;P1;durP1;ratioP1;P2;durP2;ratioP2
25846;SDS011;13676;50.168;8.568;2023-05-10T00:00:32;2.05;;;0.30;;
25846;SDS011;13676;50.168;8.568;2023-05-10T00:02:58;0.40;;;0.30;;
25846;SDS011;13676;50.168;8.568;2023-05-10T00:05:23;0.57;;;0.32;;
25846;SDS011;13676;50.168;8.568;2023-05-10T00:07:49;0.25;;;0.25;;
25846;SDS011;13676;50.168;8.568;2023-05-10T00:10:14;0.38;;;0.20;;
25846;SDS011;13676;50.168;8.568;2023-05-10T00:12:41;0.30;;;0.30;;
25846;SDS011;13676;50.168;8.568;2023-05-10T00:15:06;1.00;;;0.30;;
25846;SDS011;13676;50.168;8.568;2023-05-10T00:17:34;1.08;;;0.43;;
25846;SDS011;13676;50.168;8.568;2023-05-10T00:20:00;0.60;;;0.40;;
25846;SDS011;13676;50.168;8.568;2023-05-10T00:22:25;0.35;;;0.35;;
25846;SDS011;13676;50.168;8.568;2023-05-10T00:24:51;0.75;;;0.30;;
25846;SDS011;13676;50.168;8.568;2023-05-10T00:27:17;0.63;;;0.30;;
25846;SDS011;13676;50.168;8.568;2023-05-10T00:29:42;0.52;;;0.40;;
25846;SDS011;13676;50.168;8.568;2023-05-10T00:32:08;0.20;;;0.20;;
25846;SDS011;13676;50.168;8.568;2023-05-10T00:34:34;0.68;;;0.40;;
25846;SDS011;13676;50.168;8.568;2023-05-10T00:36:59;0.40;;;0.30;;
25846;SDS011;13676;50.168;8.568;2023-05-10T00:39:26;0.30;;;0.30;;
25846;SDS011;13676;50.168;8.568;2023-05-10T00:41:54;2.55;;;0.43;;
25846;SDS011;13676;50.168;8.568;2023-05-10T00:44:21;0.65;;;0.30;;
25846;SDS011;13676;50.168;8.568;2023-05-10T00:46:48;0.70;;;0.40;;
25846;SDS011;13676;50.168;8.568;2023-05-10T00:49:14;0.20;;;0.20;;
25846;SDS011;13676;50.168;8.568;2023-05-10T00:51:41;0.20;;;0.20;;
25846;SDS011;13676;50.168;8.568;2023-05-10T00:54:08;0.85;;;0.60;;
25846;SDS011;13676;50.168;8.568;2023-05-10T00:56:35;2.75;;;0.32;;
25846;SDS011;13676;50.168;8.568;2023-05-10T00:59:01;0.20;;;0.20;;
25846;SDS011;13676;50.168;8.568;2023-05-10T01:01:27;0.75;;;0.30;;
25846;SDS011;13676;50.168;8.568;2023-05-10T01:03:53;0.65;;;0.35;;
25846;SDS011;13676;50.168;8.568;2023-05-10T01:06:20;0.30;;;0.30;;
25846;SDS011;13676;50.168;8.568;2023-05-10T01:08:46;0.60;;;0.20;;
25846;SDS011;13676;50.168;8.568;2023-05-10T01:11:12;0.20;;;0.20;;
25846;SDS011;13676;50.168;8.568;2023-05-10T01:13:38;0.85;;;0.30;;
25846;SDS011;13676;50.168;8.568;2023-05-10T01:16:06;0.35;;;0.30;;
25846;SDS011;13676;50.168;8.568;2023-05-10T01:18:36;0.30;;;0.30;;
25846;SDS011;13676;50.168;8.568;2023-05-10T01:34:25;0.82;;;0.40;;
25846;SDS011;13676;50.168;8.568;2023-05-10T01:36:55;0.68;;;0.50;;
25846;SDS011;13676;50.168;8.568;2023-05-10T01:39:24;1.05;;;0.60;;
25846;SDS011;13676;50.168;8.568;2023-05-10T01:44:45;0.32;;;0.32;;
25846;SDS011;13676;50.168;8.568;2023-05-10T01:49:53;0.63;;;0.50;;
25846;SDS011;13676;50.168;8.568;2023-05-10T01:52:22;0.88;;;0.47;;
25846;SDS011;13676;50.168;8.568;2023-05-10T01:54:55;0.50;;;0.40;;
25846;SDS011;13676;50.168;8.568;2023-05-10T01:57:22;0.32;;;0.32;;
25846;SDS011;13676;50.168;8.568;2023-05-10T01:59:51;0.65;;;0.47;;
25846;SDS011;13676;50.168;8.568;2023-05-10T02:02:18;0.93;;;0.50;;
25846;SDS011;13676;50.168;8.568;2023-05-10T02:04:45;0.73;;;0.35;;
25846;SDS011;13676;50.168;8.568;2023-05-10T02:07:11;0.30;;;0.30;;
25846;SDS011;13676;50.168;8.568;2023-05-10T02:09:37;1.33;;;0.40;;
25846;SDS011;13676;50.168;8.568;2023-05-10T02:12:03;1.17;;;0.57;;
25846;SDS011;13676;50.168;8.568;2023-05-10T02:14:30;0.30;;;0.30;;
25846;SDS011;13676;50.168;8.568;2023-05-10T02:19:23;0.40;;;0.30;;
25846;SDS011;13676;50.168;8.568;2023-05-10T02:21:50;2.75;;;0.30;;
25846;SDS011;13676;50.168;8.568;2023-05-10T02:24:16;0.32;;;0.30;;
25846;SDS011;13676;50.168;8.568;2023-05-10T02:26:43;0.80;;;0.20;;
25846;SDS011;13676;50.168;8.568;2023-05-10T02:29:09;0.47;;;0.30;;
25846;SDS011;13676;50.168;8.568;2023-05-10T02:31:37;0.90;;;0.30;;
25846;SDS011;13676;50.168;8.568;2023-05-10T02:34:03;0.32;;;0.32;;
25846;SDS011;13676;50.168;8.568;2023-05-10T02:36:29;0.32;;;0.32;;
25846;SDS011;13676;50.168;8.568;2023-05-10T02:38:55;1.23;;;0.40;;
25846;SDS011;13676;50.168;8.568;2023-05-10T02:41:21;1.65;;;0.32;;
25846;SDS011;13676;50.168;8.568;2023-05-10T02:43:51;0.30;;;0.30;;
25846;SDS011;13676;50.168;8.568;2023-05-10T02:46:20;1.13;;;0.40;;
25846;SDS011;13676;50.168;8.568;2023-05-10T02:48:45;1.38;;;0.40;;
25846;SDS011;13676;50.168;8.568;2023-05-10T02:51:12;0.40;;;0.40;;
25846;SDS011;13676;50.168;8.568;2023-05-10T02:53:40;0.85;;;0.40;;
25846;SDS011;13676;50.168;8.568;2023-05-10T02:56:42;0.90;;;0.40;;
25846;SDS011;13676;50.168;8.568;2023-05-10T02:59:00;0.40;;;0.40;;
25846;SDS011;13676;50.168;8.568;2023-05-10T03:01:25;1.45;;;0.60;;
25846;SDS011;13676;50.168;8.568;2023-05-10T03:03:51;1.00;;;0.60;;
25846;SDS011;13676;50.168;8.568;2023-05-10T03:06:16;0.82;;;0.60;;
25846;SDS011;13676;50.168;8.568;2023-05-10T03:08:42;1.25;;;0.60;;
25846;SDS011;13676;50.168;8.568;2023-05-10T03:17:01;1.63;;;0.70;;
25846;SDS011;13676;50.168;8.568;2023-05-10T03:19:32;1.02;;;0.63;;
25846;SDS011;13676;50.168;8.568;2023-05-10T03:22:07;1.20;;;0.65;;
25846;SDS011;13676;50.168;8.568;2023-05-10T03:24:35;4.43;;;0.80;;
25846;SDS011;13676;50.168;8.568;2023-05-10T03:27:01;0.65;;;0.50;;
25846;SDS011;13676;50.168;8.568;2023-05-10T03:29:29;0.85;;;0.60;;
25846;SDS011;13676;50.168;8.568;2023-05-10T03:31:55;0.93;;;0.50;;
25846;SDS011;13676;50.168;8.568;2023-05-10T03:34:25;2.10;;;0.88;;
25846;SDS011;13676;50.168;8.568;2023-05-10T03:36:50;0.95;;;0.75;;
25846;SDS011;13676;50.168;8.568;2023-05-10T03:39:17;0.85;;;0.70;;
25846;SDS011;13676;50.168;8.568;2023-05-10T03:41:43;2.20;;;0.50;;
25846;SDS011;13676;50.168;8.568;2023-05-10T03:44:08;0.73;;;0.50;;
25846;SDS011;13676;50.168;8.568;2023-05-10T03:46:33;0.70;;;0.50;;
25846;SDS011;13676;50.168;8.568;2023-05-10T03:48:59;4.88;;;0.65;;
25846;SDS011;13676;50.168;8.568;2023-05-10T03:51:24;0.40;;;0.40;;
25846;SDS011;13676;50.168;8.568;2023-05-10T03:53:53;1.58;;;0.70;;
25846;SDS011;13676;50.168;8.568;2023-05-10T03:56:22;0.95;;;0.50;;
25846;SDS011;13676;50.168;8.568;2023-05-10T03:58:48;1.02;;;0.70;;
25846;SDS011;13676;50.168;8.568;2023-05-10T04:01:14;0.90;;;0.50;;
25846;SDS011;13676;50.168;8.568;2023-05-10T04:03:39;1.83;;;1.15;;
25846;SDS011;13676;50.168;8.568;2023-05-10T04:06:05;1.63;;;0.80;;
25846;SDS011;13676;50.168;8.568;2023-05-10T04:08:34;2.45;;;0.98;;
25846;SDS011;13676;50.168;8.568;2023-05-10T04:11:09;1.88;;;0.80;;
25846;SDS011;13676;50.168;8.568;2023-05-10T04:13:37;0.98;;;0.90;;
25846;SDS011;13676;50.168;8.568;2023-05-10T04:16:05;1.80;;;1.30;;
25846;SDS011;13676;50.168;8.568;2023-05-10T04:18:32;0.82;;;0.80;;
25846;SDS011;13676;50.168;8.568;2023-05-10T04:20:58;1.30;;;1.00;;
25846;SDS011;13676;50.168;8.568;2023-05-10T04:23:24;2.22;;;1.02;;
25846;SDS011;13676;50.168;8.568;2023-05-10T04:25:49;3.05;;;1.10;;
25846;SDS011;13676;50.168;8.568;2023-05-10T04:28:14;2.15;;;1.00;;
25846;SDS011;13676;50.168;8.568;2023-05-10T04:30:40;2.25;;;1.00;;
25846;SDS011;13676;50.168;8.568;2023-05-10T04:33:05;1.58;;;1.10;;
25846;SDS011;13676;50.168;8.568;2023-05-10T04:35:31;1.88;;;1.17;;
25846;SDS011;13676;50.168;8.568;2023-05-10T04:37:57;1.00;;;0.90;;
25846;SDS011;13676;50.168;8.568;2023-05-10T04:40:23;1.10;;;1.00;;
25846;SDS011;13676;50.168;8.568;2023-05-10T04:42:48;1.83;;;1.17;;
25846;SDS011;13676;50.168;8.568;2023-05-10T04:45:14;1.00;;;0.90;;
25846;SDS011;13676;50.168;8.568;2023-05-10T04:47:42;1.80;;;1.10;;
25846;SDS011;13676;50.168;8.568;2023-05-10T04:50:08;4.40;;;1.30;;
25846;SDS011;13676;50.168;8.568;2023-05-10T04:52:34;2.60;;;1.40;;
25846;SDS011;13676;50.168;8.568;2023-05-10T04:54:59;1.90;;;1.10;;
25846;SDS011;13676;50.168;8.568;2023-05-10T04:57:24;2.00;;;1.40;;
25846;SDS011;13676;50.168;8.568;2023-05-10T04:59:50;2.08;;;1.10;;
25846;SDS011;13676;50.168;8.568;2023-05-10T05:02:15;4.00;;;1.23;;
25846;SDS011;13676;50.168;8.568;2023-05-10T05:04:41;2.28;;;1.10;;
25846;SDS011;13676;50.168;8.568;2023-05-10T05:07:06;1.17;;;1.08;;
25846;SDS011;13676;50.168;8.568;2023-05-10T05:09:31;1.17;;;1.08;;
25846;SDS011;13676;50.168;8.568;2023-05-10T05:11:57;2.75;;;1.13;;
25846;SDS011;13676;50.168;8.568;2023-05-10T05:14:26;7.30;;;1.13;;
25846;SDS011;13676;50.168;8.568;2023-05-10T05:16:52;1.02;;;0.90;;
25846;SDS011;13676;50.168;8.568;2023-05-10T05:19:18;1.05;;;0.90;;
25846;SDS011;13676;50.168;8.568;2023-05-10T05:21:44;3.00;;;1.23;;
25846;SDS011;13676;50.168;8.568;2023-05-10T05:24:10;2.33;;;1.30;;
25846;SDS011;13676;50.168;8.568;2023-05-10T05:26:38;1.45;;;1.10;;
25846;SDS011;13676;50.168;8.568;2023-05-10T05:29:03;1.65;;;1.02;;
25846;SDS011;13676;50.168;8.568;2023-05-10T05:31:29;1.08;;;0.98;;
25846;SDS011;13676;50.168;8.568;2023-05-10T05:33:54;1.30;;;1.13;;
25846;SDS011;13676;50.168;8.568;2023-05-10T05:36:20;9.48;;;1.17;;
25846;SDS011;13676;50.168;8.568;2023-05-10T05:38:46;1.20;;;1.00;;
25846;SDS011;13676;50.168;8.568;2023-05-10T05:41:14;1.10;;;1.00;;
25846;SDS011;13676;50.168;8.568;2023-05-10T05:43:39;1.30;;;1.10;;
25846;SDS011;13676;50.168;8.568;2023-05-10T05:46:05;3.15;;;1.40;;
25846;SDS011;13676;50.168;8.568;2023-05-10T05:48:34;2.47;;;1.10;;
25846;SDS011;13676;50.168;8.568;2023-05-10T05:51:00;2.33;;;1.20;;
25846;SDS011;13676;50.168;8.568;2023-05-10T05:53:27;1.08;;;0.90;;
25846;SDS011;13676;50.168;8.568;2023-05-10T05:55:56;2.35;;;1.20;;
25846;SDS011;13676;50.168;8.568;2023-05-10T05:58:24;2.88;;;1.33;;
25846;SDS011;13676;50.168;8.568;2023-05-10T06:00:50;1.48;;;1.30;;
25846;SDS011;13676;50.168;8.568;2023-05-10T06:03:17;3.90;;;1.02;;
25846;SDS011;13676;50.168;8.568;2023-05-10T06:05:43;2.80;;;1.30;;
25846;SDS011;13676;50.168;8.568;2023-05-10T06:08:08;2.22;;;1.40;;
25846;SDS011;13676;50.168;8.568;2023-05-10T06:10:34;3.90;;;1.10;;
25846;SDS011;13676;50.168;8.568;2023-05-10T06:12:59;2.63;;;1.50;;
25846;SDS011;13676;50.168;8.568;2023-05-10T06:15:25;1.98;;;1.55;;
25846;SDS011;13676;50.168;8.568;2023-05-10T06:17:51;1.35;;;1.25;;
25846;SDS011;13676;50.168;8.568;2023-05-10T06:20:16;1.73;;;1.13;;
25846;SDS011;13676;50.168;8.568;2023-05-10T06:22:42;4.03;;;1.60;;
25846;SDS011;13676;50.168;8.568;2023-05-10T06:25:07;4.40;;;1.33;;
25846;SDS011;13676;50.168;8.568;2023-05-10T06:27:35;2.22;;;1.30;;
25846;SDS011;13676;50.168;8.568;2023-05-10T06:30:01;3.70;;;1.50;;
25846;SDS011;13676;50.168;8.568;2023-05-10T06:32:27;2.10;;;1.70;;
25846;SDS011;13676;50.168;8.568;2023-05-10T06:34:53;2.78;;;1.35;;
25846;SDS011;13676;50.168;8.568;2023-05-10T06:37:20;2.90;;;1.63;;
25846;SDS011;13676;50.168;8.568;2023-05-10T06:39:46;1.98;;;1.40;;
25846;SDS011;13676;50.168;8.568;2023-05-10T06:42:13;1.30;;;1.20;;
25846;SDS011;13676;50.168;8.568;2023-05-10T06:44:41;2.97;;;1.50;;
25846;SDS011;13676;50.168;8.568;2023-05-10T06:47:09;2.70;;;1.50;;
25846;SDS011;13676;50.168;8.568;2023-05-10T06:49:36;2.05;;;1.48;;
25846;SDS011;13676;50.168;8.568;2023-05-10T06:52:02;2.67;;;1.50;;
25846;SDS011;13676;50.168;8.568;2023-05-10T06:54:27;2.53;;;1.35;;
25846;SDS011;13676;50.168;8.568;2023-05-10T06:56:52;1.52;;;1.42;;
25846;SDS011;13676;50.168;8.568;2023-05-10T06:59:18;1.38;;;1.10;;
25846;SDS011;13676;50.168;8.568;2023-05-10T07:01:44;2.08;;;1.30;;
25846;SDS011;13676;50.168;8.568;2023-05-10T07:04:09;2.58;;;1.50;;
25846;SDS011;13676;50.168;8.568;2023-05-10T07:06:35;2.15;;;1.40;;
25846;SDS011;13676;50.168;8.568;2023-05-10T07:09:01;4.80;;;1.45;;
25846;SDS011;13676;50.168;8.568;2023-05-10T07:11:26;4.22;;;1.75;;
25846;SDS011;13676;50.168;8.568;2023-05-10T07:13:53;3.28;;;1.67;;
25846;SDS011;13676;50.168;8.568;2023-05-10T07:16:19;1.90;;;1.50;;
25846;SDS011;13676;50.168;8.568;2023-05-10T07:18:44;2.63;;;1.67;;
25846;SDS011;13676;50.168;8.568;2023-05-10T07:21:10;4.30;;;1.30;;
25846;SDS011;13676;50.168;8.568;2023-05-10T07:23:35;5.00;;;1.63;;
25846;SDS011;13676;50.168;8.568;2023-05-10T07:26:00;2.83;;;1.40;;
25846;SDS011;13676;50.168;8.568;2023-05-10T07:28:27;2.23;;;1.57;;
25846;SDS011;13676;50.168;8.568;2023-05-10T07:30:53;3.72;;;2.10;;
25846;SDS011;13676;50.168;8.568;2023-05-10T07:33:20;8.35;;;2.70;;
25846;SDS011;13676;50.168;8.568;2023-05-10T07:35:45;4.20;;;2.40;;
25846;SDS011;13676;50.168;8.568;2023-05-10T07:38:11;6.38;;;2.50;;
25846;SDS011;13676;50.168;8.568;2023-05-10T07:40:36;4.22;;;2.53;;
25846;SDS011;13676;50.168;8.568;2023-05-10T07:43:03;4.22;;;2.40;;
25846;SDS011;13676;50.168;8.568;2023-05-10T07:45:28;3.65;;;2.00;;
25846;SDS011;13676;50.168;8.568;2023-05-10T07:47:54;6.07;;;2.45;;
25846;SDS011;13676;50.168;8.568;2023-05-10T07:50:20;6.10;;;2.10;;
25846;SDS011;13676;50.168;8.568;2023-05-10T07:52:46;4.60;;;2.10;;
25846;SDS011;13676;50.168;8.568;2023-05-10T07:55:12;3.78;;;2.55;;
25846;SDS011;13676;50.168;8.568;2023-05-10T07:57:37;6.35;;;2.22;;
25846;SDS011;13676;50.168;8.568;2023-05-10T08:00:03;3.90;;;2.03;;
25846;SDS011;13676;50.168;8.568;2023-05-10T08:02:28;3.08;;;2.00;;
25846;SDS011;13676;50.168;8.568;2023-05-10T08:04:54;5.95;;;2.10;;
25846;SDS011;13676;50.168;8.568;2023-05-10T08:07:22;5.47;;;1.70;;
25846;SDS011;13676;50.168;8.568;2023-05-10T08:09:49;2.35;;;1.63;;
25846;SDS011;13676;50.168;8.568;2023-05-10T08:12:14;4.15;;;2.15;;
25846;SDS011;13676;50.168;8.568;2023-05-10T08:14:40;4.90;;;1.70;;
25846;SDS011;13676;50.168;8.568;2023-05-10T08:17:06;5.07;;;1.60;;
25846;SDS011;13676;50.168;8.568;2023-05-10T08:19:31;3.80;;;1.67;;
25846;SDS011;13676;50.168;8.568;2023-05-10T08:21:57;4.75;;;1.60;;
25846;SDS011;13676;50.168;8.568;2023-05-10T08:24:23;8.40;;;1.70;;
25846;SDS011;13676;50.168;8.568;2023-05-10T08:26:49;4.15;;;1.48;;
25846;SDS011;13676;50.168;8.568;2023-05-10T08:29:14;2.80;;;1.70;;
25846;SDS011;13676;50.168;8.568;2023-05-10T08:31:40;4.10;;;1.50;;
25846;SDS011;13676;50.168;8.568;2023-05-10T08:34:05;2.58;;;1.50;;
25846;SDS011;13676;50.168;8.568;2023-05-10T08:36:31;6.43;;;1.80;;
25846;SDS011;13676;50.168;8.568;2023-05-10T08:38:57;6.88;;;1.67;;
25846;SDS011;13676;50.168;8.568;2023-05-10T08:41:23;4.28;;;1.75;;
25846;SDS011;13676;50.168;8.568;2023-05-10T08:46:18;4.80;;;2.10;;
25846;SDS011;13676;50.168;8.568;2023-05-10T08:48:45;2.80;;;1.70;;
25846;SDS011;13676;50.168;8.568;2023-05-10T08:51:14;5.05;;;1.83;;
25846;SDS011;13676;50.168;8.568;2023-05-10T08:53:43;4.72;;;1.98;;
25846;SDS011;13676;50.168;8.568;2023-05-10T08:56:09;4.82;;;1.80;;
25846;SDS011;13676;50.168;8.568;2023-05-10T08:58:34;5.30;;;1.65;;
25846;SDS011;13676;50.168;8.568;2023-05-10T09:01:00;2.72;;;1.73;;
25846;SDS011;13676;50.168;8.568;2023-05-10T09:03:26;3.53;;;1.77;;
25846;SDS011;13676;50.168;8.568;2023-05-10T09:05:52;3.03;;;1.63;;
25846;SDS011;13676;50.168;8.568;2023-05-10T09:08:17;4.63;;;1.35;;
25846;SDS011;13676;50.168;8.568;2023-05-10T09:10:43;2.03;;;1.10;;
25846;SDS011;13676;50.168;8.568;2023-05-10T09:13:12;3.22;;;1.50;;
25846;SDS011;13676;50.168;8.568;2023-05-10T09:15:38;4.13;;;1.65;;
25846;SDS011;13676;50.168;8.568;2023-05-10T09:18:03;2.42;;;1.20;;
25846;SDS011;13676;50.168;8.568;2023-05-10T09:20:30;6.57;;;1.42;;
25846;SDS011;13676;50.168;8.568;2023-05-10T09:22:56;4.25;;;1.50;;
25846;SDS011;13676;50.168;8.568;2023-05-10T09:25:21;6.25;;;1.50;;
25846;SDS011;13676;50.168;8.568;2023-05-10T09:27:47;3.83;;;1.20;;
25846;SDS011;13676;50.168;8.568;2023-05-10T09:30:26;3.08;;;1.60;;
25846;SDS011;13676;50.168;8.568;2023-05-10T09:32:53;3.78;;;1.67;;
25846;SDS011;13676;50.168;8.568;2023-05-10T09:35:20;3.50;;;1.60;;
25846;SDS011;13676;50.168;8.568;2023-05-10T09:37:49;2.97;;;1.08;;
25846;SDS011;13676;50.168;8.568;2023-05-10T09:40:19;3.65;;;1.73;;
25846;SDS011;13676;50.168;8.568;2023-05-10T09:43:05;3.40;;;1.08;;
25846;SDS011;13676;50.168;8.568;2023-05-10T09:45:32;3.67;;;1.42;;
25846;SDS011;13676;50.168;8.568;2023-05-10T09:48:02;4.95;;;1.30;;
25846;SDS011;13676;50.168;8.568;2023-05-10T09:50:29;2.03;;;1.20;;
25846;SDS011;13676;50.168;8.568;2023-05-10T09:52:56;2.83;;;1.23;;
25846;SDS011;13676;50.168;8.568;2023-05-10T09:55:26;2.28;;;1.33;;
25846;SDS011;13676;50.168;8.568;2023-05-10T09:58:03;2.25;;;1.20;;
25846;SDS011;13676;50.168;8.568;2023-05-10T10:00:35;3.85;;;1.20;;
25846;SDS011;13676;50.168;8.568;2023-05-10T10:03:01;2.65;;;1.45;;
25846;SDS011;13676;50.168;8.568;2023-05-10T10:08:00;3.67;;;1.50;;
25846;SDS011;13676;50.168;8.568;2023-05-10T10:10:28;2.80;;;1.48;;
25846;SDS011;13676;50.168;8.568;2023-05-10T10:12:54;3.10;;;1.60;;
25846;SDS011;13676;50.168;8.568;2023-05-10T10:15:20;2.05;;;1.35;;
25846;SDS011;13676;50.168;8.568;2023-05-10T10:17:46;1.37;;;1.00;;
25846;SDS011;13676;50.168;8.568;2023-05-10T10:20:13;2.40;;;1.42;;
25846;SDS011;13676;50.168;8.568;2023-05-10T10:22:39;3.53;;;1.45;;
25846;SDS011;13676;50.168;8.568;2023-05-10T10:25:05;2.88;;;1.58;;
25846;SDS011;13676;50.168;8.568;2023-05-10T10:27:45;3.67;;;1.40;;
25846;SDS011;13676;50.168;8.568;2023-05-10T10:35:30;3.08;;;1.63;;
25846;SDS011;13676;50.168;8.568;2023-05-10T10:37:56;4.80;;;1.65;;
25846;SDS011;13676;50.168;8.568;2023-05-10T10:42:54;4.60;;;1.38;;
25846;SDS011;13676;50.168;8.568;2023-05-10T10:45:20;8.47;;;1.40;;
25846;SDS011;13676;50.168;8.568;2023-05-10T10:47:47;2.42;;;0.93;;
25846;SDS011;13676;50.168;8.568;2023-05-10T10:50:12;1.55;;;1.15;;
25846;SDS011;13676;50.168;8.568;2023-05-10T10:52:41;2.35;;;1.00;;
25846;SDS011;13676;50.168;8.568;2023-05-10T10:55:19;3.50;;;1.08;;
25846;SDS011;13676;50.168;8.568;2023-05-10T10:57:50;1.67;;;0.60;;
25846;SDS011;13676;50.168;8.568;2023-05-10T11:02:46;1.05;;;0.60;;
25846;SDS011;13676;50.168;8.568;2023-05-10T11:15:56;3.40;;;0.82;;
25846;SDS011;13676;50.168;8.568;2023-05-10T11:18:25;2.53;;;1.10;;
25846;SDS011;13676;50.168;8.568;2023-05-10T11:23:29;2.10;;;0.80;;
25846;SDS011;13676;50.168;8.568;2023-05-10T11:25:56;2.80;;;0.90;;
25846;SDS011;13676;50.168;8.568;2023-05-10T11:30:51;4.70;;;1.00;;
25846;SDS011;13676;50.168;8.568;2023-05-10T11:33:17;2.28;;;0.90;;
25846;SDS011;13676;50.168;8.568;2023-05-10T11:35:44;3.55;;;0.75;;
25846;SDS011;13676;50.168;8.568;2023-05-10T11:38:11;1.20;;;0.63;;
25846;SDS011;13676;50.168;8.568;2023-05-10T11:40:37;1.67;;;0.90;;
25846;SDS011;13676;50.168;8.568;2023-05-10T11:43:03;1.00;;;0.60;;
25846;SDS011;13676;50.168;8.568;2023-05-10T11:45:29;1.92;;;0.60;;
25846;SDS011;13676;50.168;8.568;2023-05-10T11:47:57;3.35;;;0.82;;
25846;SDS011;13676;50.168;8.568;2023-05-10T11:50:23;0.85;;;0.68;;
25846;SDS011;13676;50.168;8.568;2023-05-10T11:52:52;0.60;;;0.55;;
25846;SDS011;13676;50.168;8.568;2023-05-10T11:55:19;0.75;;;0.50;;
25846;SDS011;13676;50.168;8.568;2023-05-10T11:57:44;1.95;;;0.47;;
25846;SDS011;13676;50.168;8.568;2023-05-10T12:00:11;0.60;;;0.55;;
25846;SDS011;13676;50.168;8.568;2023-05-10T12:02:37;1.25;;;0.70;;
25846;SDS011;13676;50.168;8.568;2023-05-10T12:05:04;2.75;;;0.80;;
25846;SDS011;13676;50.168;8.568;2023-05-10T12:07:30;0.88;;;0.57;;
25846;SDS011;13676;50.168;8.568;2023-05-10T12:10:29;0.70;;;0.60;;
25846;SDS011;13676;50.168;8.568;2023-05-10T12:12:51;1.48;;;0.73;;
25846;SDS011;13676;50.168;8.568;2023-05-10T12:15:21;1.90;;;0.80;;
25846;SDS011;13676;50.168;8.568;2023-05-10T12:17:47;0.80;;;0.50;;
25846;SDS011;13676;50.168;8.568;2023-05-10T12:20:17;2.70;;;0.65;;
25846;SDS011;13676;50.168;8.568;2023-05-10T12:25:16;1.45;;;0.60;;
25846;SDS011;13676;50.168;8.568;2023-05-10T12:27:49;1.08;;;0.50;;
25846;SDS011;13676;50.168;8.568;2023-05-10T12:30:20;2.00;;;0.77;;
25846;SDS011;13676;50.168;8.568;2023-05-10T12:32:49;0.70;;;0.60;;
25846;SDS011;13676;50.168;8.568;2023-05-10T12:35:15;0.95;;;0.80;;
25846;SDS011;13676;50.168;8.568;2023-05-10T12:37:42;2.95;;;0.70;;
25846;SDS011;13676;50.168;8.568;2023-05-10T12:40:08;2.72;;;0.80;;
25846;SDS011;13676;50.168;8.568;2023-05-10T12:45:01;1.10;;;0.50;;
25846;SDS011;13676;50.168;8.568;2023-05-10T12:47:27;0.57;;;0.57;;
25846;SDS011;13676;50.168;8.568;2023-05-10T12:49:53;0.77;;;0.60;;
25846;SDS011;13676;50.168;8.568;2023-05-10T12:52:19;2.03;;;0.70;;
25846;SDS011;13676;50.168;8.568;2023-05-10T12:54:45;1.52;;;0.60;;
25846;SDS011;13676;50.168;8.568;2023-05-10T12:57:11;0.80;;;0.60;;
25846;SDS011;13676;50.168;8.568;2023-05-10T12:59:36;0.85;;;0.60;;
25846;SDS011;13676;50.168;8.568;2023-05-10T13:02:01;2.97;;;0.63;;
25846;SDS011;13676;50.168;8.568;2023-05-10T13:04:27;5.20;;;0.55;;
25846;SDS011;13676;50.168;8.568;2023-05-10T13:06:52;0.90;;;0.50;;
25846;SDS011;13676;50.168;8.568;2023-05-10T13:09:17;0.60;;;0.52;;
25846;SDS011;13676;50.168;8.568;2023-05-10T13:11:43;0.95;;;0.40;;
25846;SDS011;13676;50.168;8.568;2023-05-10T13:14:10;1.58;;;0.45;;
25846;SDS011;13676;50.168;8.568;2023-05-10T13:16:35;0.70;;;0.47;;
25846;SDS011;13676;50.168;8.568;2023-05-10T13:19:01;1.38;;;0.47;;
25846;SDS011;13676;50.168;8.568;2023-05-10T13:21:26;0.90;;;0.50;;
25846;SDS011;13676;50.168;8.568;2023-05-10T13:23:52;2.63;;;0.55;;
25846;SDS011;13676;50.168;8.568;2023-05-10T13:26:18;1.35;;;0.80;;
25846;SDS011;13676;50.168;8.568;2023-05-10T13:28:44;1.95;;;0.60;;
25846;SDS011;13676;50.168;8.568;2023-05-10T13:31:10;1.73;;;0.80;;
25846;SDS011;13676;50.168;8.568;2023-05-10T13:33:36;4.40;;;0.68;;
25846;SDS011;13676;50.168;8.568;2023-05-10T13:36:01;3.03;;;0.57;;
25846;SDS011;13676;50.168;8.568;2023-05-10T13:38:26;0.40;;;0.40;;
25846;SDS011;13676;50.168;8.568;2023-05-10T13:40:52;0.70;;;0.43;;
25846;SDS011;13676;50.168;8.568;2023-05-10T13:43:18;2.10;;;0.50;;
25846;SDS011;13676;50.168;8.568;2023-05-10T13:45:44;1.40;;;0.50;;
25846;SDS011;13676;50.168;8.568;2023-05-10T13:48:10;2.50;;;0.80;;
25846;SDS011;13676;50.168;8.568;2023-05-10T13:50:35;1.27;;;0.50;;
25846;SDS011;13676;50.168;8.568;2023-05-10T13:53:00;1.40;;;0.50;;
25846;SDS011;13676;50.168;8.568;2023-05-10T13:55:26;0.68;;;0.52;;
25846;SDS011;13676;50.168;8.568;2023-05-10T13:57:51;3.80;;;0.60;;
25846;SDS011;13676;50.168;8.568;2023-05-10T14:00:16;1.42;;;0.40;;
25846;SDS011;13676;50.168;8.568;2023-05-10T14:02:42;1.35;;;0.40;;
25846;SDS011;13676;50.168;8.568;2023-05-10T14:05:07;0.50;;;0.40;;
25846;SDS011;13676;50.168;8.568;2023-05-10T14:07:33;0.63;;;0.40;;
25846;SDS011;13676;50.168;8.568;2023-05-10T14:09:58;1.48;;;0.60;;
25846;SDS011;13676;50.168;8.568;2023-05-10T14:12:24;1.85;;;0.50;;
25846;SDS011;13676;50.168;8.568;2023-05-10T14:14:50;0.95;;;0.30;;
25846;SDS011;13676;50.168;8.568;2023-05-10T14:17:15;0.70;;;0.40;;
25846;SDS011;13676;50.168;8.568;2023-05-10T14:19:41;2.47;;;0.50;;
25846;SDS011;13676;50.168;8.568;2023-05-10T14:22:06;2.67;;;0.50;;
25846;SDS011;13676;50.168;8.568;2023-05-10T14:24:31;0.90;;;0.52;;
25846;SDS011;13676;50.168;8.568;2023-05-10T14:26:57;1.27;;;0.40;;
25846;SDS011;13676;50.168;8.568;2023-05-10T14:29:22;6.80;;;0.50;;
25846;SDS011;13676;50.168;8.568;2023-05-10T14:31:48;0.50;;;0.30;;
25846;SDS011;13676;50.168;8.568;2023-05-10T14:34:15;0.77;;;0.43;;
25846;SDS011;13676;50.168;8.568;2023-05-10T14:36:41;2.22;;;0.50;;
25846;SDS011;13676;50.168;8.568;2023-05-10T14:39:06;0.45;;;0.30;;
25846;SDS011;13676;50.168;8.568;2023-05-10T14:41:32;1.10;;;0.88;;
25846;SDS011;13676;50.168;8.568;2023-05-10T14:43:58;0.95;;;0.40;;
25846;SDS011;13676;50.168;8.568;2023-05-10T14:46:23;0.98;;;0.40;;
25846;SDS011;13676;50.168;8.568;2023-05-10T14:48:49;0.85;;;0.30;;
25846;SDS011;13676;50.168;8.568;2023-05-10T14:51:15;1.48;;;0.28;;
25846;SDS011;13676;50.168;8.568;2023-05-10T14:53:40;2.15;;;0.30;;
25846;SDS011;13676;50.168;8.568;2023-05-10T14:56:06;3.67;;;0.40;;
25846;SDS011;13676;50.168;8.568;2023-05-10T14:58:32;0.30;;;0.30;;
25846;SDS011;13676;50.168;8.568;2023-05-10T15:00:57;0.45;;;0.32;;
25846;SDS011;13676;50.168;8.568;2023-05-10T15:03:22;0.98;;;0.50;;
25846;SDS011;13676;50.168;8.568;2023-05-10T15:05:48;0.70;;;0.50;;
25846;SDS011;13676;50.168;8.568;2023-05-10T15:08:13;0.65;;;0.38;;
25846;SDS011;13676;50.168;8.568;2023-05-10T15:10:39;1.48;;;0.45;;
25846;SDS011;13676;50.168;8.568;2023-05-10T15:13:04;0.43;;;0.30;;
25846;SDS011;13676;50.168;8.568;2023-05-10T15:15:30;1.15;;;0.40;;
25846;SDS011;13676;50.168;8.568;2023-05-10T15:17:56;0.95;;;0.43;;
25846;SDS011;13676;50.168;8.568;2023-05-10T15:20:21;1.13;;;0.40;;
25846;SDS011;13676;50.168;8.568;2023-05-10T15:22:47;1.00;;;0.32;;
25846;SDS011;13676;50.168;8.568;2023-05-10T15:25:12;0.63;;;0.40;;
25846;SDS011;13676;50.168;8.568;2023-05-10T15:27:38;0.75;;;0.40;;
25846;SDS011;13676;50.168;8.568;2023-05-10T15:30:04;0.90;;;0.50;;
25846;SDS011;13676;50.168;8.568;2023-05-10T15:34:56;1.70;;;0.40;;
25846;SDS011;13676;50.168;8.568;2023-05-10T15:37:22;0.25;;;0.25;;
25846;SDS011;13676;50.168;8.568;2023-05-10T15:39:48;0.87;;;0.50;;
25846;SDS011;13676;50.168;8.568;2023-05-10T15:42:14;1.65;;;0.88;;
25846;SDS011;13676;50.168;8.568;2023-05-10T15:44:40;1.55;;;0.30;;
25846;SDS011;13676;50.168;8.568;2023-05-10T15:47:07;0.70;;;0.35;;
25846;SDS011;13676;50.168;8.568;2023-05-10T15:49:32;0.45;;;0.25;;